createdAt,value
2018-05-07T00:01:44.364Z,6.05
2018-05-07T00:04:16.621Z,5.90
2018-05-07T00:06:46.822Z,6.00
2018-05-07T00:09:17.650Z,5.35
2018-05-07T00:11:47.906Z,5.78
2018-05-07T00:14:19.168Z,5.88
2018-05-07T00:16:50.019Z,5.90
2018-05-07T00:19:20.739Z,5.30
2018-05-07T00:21:51.618Z,6.40
2018-05-07T00:24:22.419Z,5.93
2018-05-07T00:26:53.537Z,5.90
2018-05-07T00:29:23.399Z,5.70
2018-05-07T00:31:54.583Z,5.25
2018-05-07T00:34:25.057Z,5.18
2018-05-07T00:36:56.112Z,5.50
2018-05-07T00:39:27.111Z,5.70
2018-05-07T00:41:58.088Z,5.87
2018-05-07T00:44:29.129Z,6.00
2018-05-07T00:46:59.995Z,5.65
2018-05-07T00:49:31.022Z,5.87
2018-05-07T00:52:02.071Z,6.10
2018-05-07T00:54:33.134Z,5.42
2018-05-07T00:57:04.939Z,5.46
2018-05-07T00:59:35.698Z,5.93
2018-05-07T01:02:05.880Z,5.95
2018-05-07T01:04:36.706Z,5.93
2018-05-07T01:07:07.538Z,6.05
2018-05-07T01:09:38.451Z,5.18
2018-05-07T01:12:09.541Z,5.55
2018-05-07T01:14:40.046Z,5.86
2018-05-07T01:17:10.859Z,4.93
2018-05-07T01:19:41.623Z,5.60
2018-05-07T01:22:12.554Z,5.62
2018-05-07T01:24:43.390Z,5.85
2018-05-07T01:27:14.540Z,5.65
2018-05-07T01:29:45.354Z,6.68
2018-05-07T01:32:16.506Z,6.03
2018-05-07T01:34:47.482Z,5.93
2018-05-07T01:37:18.461Z,5.87
2018-05-07T01:39:49.444Z,5.80
2018-05-07T01:42:20.444Z,6.05
2018-05-07T01:44:51.533Z,5.40
2018-05-07T01:47:22.540Z,6.40
2018-05-07T01:49:53.442Z,6.00
2018-05-07T01:52:24.602Z,6.00
2018-05-07T01:54:55.465Z,6.35
2018-05-07T01:57:26.541Z,7.10
2018-05-07T01:59:57.450Z,7.00
2018-05-07T02:02:28.487Z,7.12
2018-05-07T02:04:59.280Z,7.46
2018-05-07T02:07:30.084Z,7.07
2018-05-07T02:10:00.855Z,7.18
2018-05-07T02:12:31.170Z,6.87
2018-05-07T02:15:02.743Z,7.04
2018-05-07T02:17:33.583Z,6.57
2018-05-07T02:20:04.538Z,6.65
2018-05-07T02:22:35.585Z,7.12
2018-05-07T02:25:06.050Z,6.72
2018-05-07T02:27:36.937Z,6.86
2018-05-07T02:30:07.714Z,6.05
2018-05-07T02:32:37.822Z,6.97
2018-05-07T02:35:08.635Z,6.75
2018-05-07T02:37:39.478Z,6.97
2018-05-07T02:40:10.603Z,6.03
2018-05-07T02:42:41.622Z,6.75
2018-05-07T02:45:12.446Z,6.55
2018-05-07T02:47:43.640Z,6.18
2018-05-07T02:50:14.440Z,6.45
2018-05-07T02:52:45.608Z,6.40
2018-05-07T02:55:16.463Z,6.70
2018-05-07T02:57:47.638Z,6.45
2018-05-07T03:00:18.083Z,6.68
2018-05-07T03:02:48.872Z,6.02
2018-05-07T03:05:19.837Z,5.85
2018-05-07T03:07:50.647Z,5.65
2018-05-07T03:10:21.476Z,6.75
2018-05-07T03:12:52.692Z,6.37
2018-05-07T03:15:23.551Z,6.47
2018-05-07T03:17:54.565Z,6.72
2018-05-07T03:20:25.409Z,6.47
2018-05-07T03:22:56.583Z,6.60
2018-05-07T03:25:27.472Z,6.10
2018-05-07T03:27:58.179Z,6.74
2018-05-07T03:30:30.049Z,6.70
2018-05-07T03:33:00.028Z,5.82
2018-05-07T03:35:30.973Z,6.65
2018-05-07T03:38:01.097Z,6.62
2018-05-07T03:40:31.809Z,6.66
2018-05-07T03:43:02.661Z,6.35
2018-05-07T03:45:33.167Z,6.32
2018-05-07T03:48:03.766Z,7.37
2018-05-07T03:50:34.572Z,5.95
2018-05-07T03:53:05.561Z,6.78
2018-05-07T03:55:37.019Z,7.03
2018-05-07T03:58:08.538Z,6.96
2018-05-07T04:00:39.205Z,6.54
2018-05-07T04:03:09.899Z,6.32
2018-05-07T04:05:40.737Z,6.50
2018-05-07T04:08:11.631Z,6.40
2018-05-07T04:10:42.452Z,6.32
2018-05-07T04:13:13.616Z,6.35
2018-05-07T04:15:44.551Z,6.35
2018-05-07T04:18:26.500Z,6.70
2018-05-07T04:21:06.955Z,6.43
2018-05-07T04:23:46.883Z,6.70
2018-05-07T04:26:16.649Z,6.33
2018-05-07T04:28:45.968Z,6.28
2018-05-07T04:31:15.530Z,6.00
2018-05-07T04:33:44.882Z,5.95
2018-05-07T04:36:13.903Z,6.10
2018-05-07T04:38:43.176Z,6.00
2018-05-07T04:41:12.186Z,5.93
2018-05-07T04:43:41.280Z,6.00
2018-05-07T04:46:10.907Z,5.97
2018-05-07T04:48:39.909Z,6.00
2018-05-07T04:51:09.227Z,6.20
2018-05-07T04:53:38.624Z,7.03
2018-05-07T04:56:07.610Z,6.30
2018-05-07T04:58:36.842Z,6.47
2018-05-07T05:01:05.933Z,6.18
2018-05-07T05:03:35.293Z,6.75
2018-05-07T05:06:04.801Z,6.87
2018-05-07T05:08:33.928Z,7.10
2018-05-07T05:11:04.800Z,7.05
2018-05-07T05:16:18.115Z,7.37
2018-05-07T05:18:47.662Z,6.75
2018-05-07T05:21:16.647Z,6.70
2018-05-07T05:23:46.656Z,7.73
2018-05-07T05:26:15.658Z,7.70
2018-05-07T05:28:44.573Z,7.15
2018-05-07T05:31:13.602Z,7.20
2018-05-07T05:33:43.956Z,7.56
2018-05-07T05:36:14.689Z,7.10
2018-05-07T05:38:45.375Z,7.47
2018-05-07T05:41:16.601Z,7.50
2018-05-07T05:43:47.724Z,8.00
2018-05-07T05:46:18.670Z,6.85
2018-05-07T05:48:49.184Z,7.57
2018-05-07T05:51:20.667Z,7.28
2018-05-07T05:53:51.297Z,7.15
2018-05-07T05:56:22.058Z,6.82
2018-05-07T05:58:53.210Z,6.62
2018-05-07T06:01:23.687Z,6.70
2018-05-07T06:03:54.487Z,6.37
2018-05-07T06:06:25.702Z,6.93
2018-05-07T06:08:56.434Z,6.70
2018-05-07T06:11:27.430Z,6.50
2018-05-07T06:13:58.397Z,6.28
2018-05-07T06:16:29.405Z,6.68
2018-05-07T06:19:00.393Z,6.22
2018-05-07T06:21:31.494Z,6.55
2018-05-07T06:24:02.387Z,6.43
2018-05-07T06:26:33.382Z,6.43
2018-05-07T06:29:04.419Z,6.50
2018-05-07T06:31:35.177Z,5.85
2018-05-07T06:34:05.891Z,5.72
2018-05-07T06:36:36.707Z,6.47
2018-05-07T06:39:07.805Z,5.30
2018-05-07T06:41:38.535Z,5.78
2018-05-07T06:44:09.393Z,5.12
2018-05-07T06:46:40.415Z,5.32
2018-05-07T06:49:11.402Z,5.07
2018-05-07T06:51:42.062Z,4.90
2018-05-07T06:54:13.756Z,5.80
2018-05-07T06:56:44.527Z,5.18
2018-05-07T06:59:14.878Z,5.22
2018-05-07T07:01:45.643Z,5.10
2018-05-07T07:04:16.302Z,4.22
2018-05-07T07:06:47.400Z,4.60
2018-05-07T07:09:18.425Z,4.60
2018-05-07T07:11:49.437Z,4.10
2018-05-07T07:14:20.374Z,3.75
2018-05-07T07:16:51.382Z,4.50
2018-05-07T07:19:21.938Z,3.88
2018-05-07T07:21:52.547Z,4.25
2018-05-07T07:24:23.343Z,3.15
2018-05-07T07:26:54.462Z,3.53
2018-05-07T07:29:24.280Z,3.65
2018-05-07T07:31:55.320Z,3.83
2018-05-07T07:34:26.047Z,3.53
2018-05-07T07:36:57.017Z,3.25
2018-05-07T07:39:27.980Z,2.87
2018-05-07T07:41:59.198Z,2.70
2018-05-07T07:44:30.151Z,2.60
2018-05-07T07:47:00.978Z,2.45
2018-05-07T07:49:31.917Z,2.47
2018-05-07T07:52:02.955Z,2.50
2018-05-07T07:54:33.937Z,2.08
2018-05-07T07:57:05.024Z,2.50
2018-05-07T07:59:35.935Z,2.40
2018-05-07T08:02:07.011Z,2.10
2018-05-07T08:04:37.913Z,1.60
2018-05-07T08:07:08.942Z,2.30
2018-05-07T08:09:39.917Z,1.67
2018-05-07T08:12:10.984Z,1.80
2018-05-07T08:14:41.967Z,1.40
2018-05-07T08:17:12.995Z,1.20
2018-05-07T08:19:44.005Z,1.60
2018-05-07T08:22:14.962Z,1.87
2018-05-07T08:24:46.017Z,1.87
2018-05-07T08:27:17.734Z,1.30
2018-05-07T08:29:48.410Z,1.40
2018-05-07T08:32:19.454Z,1.20
2018-05-07T08:34:50.155Z,1.10
2018-05-07T08:37:21.705Z,1.30
2018-05-07T08:39:52.411Z,1.30
2018-05-07T08:42:23.424Z,1.20
2018-05-07T08:44:54.392Z,1.17
2018-05-07T08:47:25.408Z,1.33
2018-05-07T08:49:56.354Z,1.52
2018-05-07T08:52:27.350Z,1.60
2018-05-07T08:54:58.420Z,1.42
2018-05-07T08:57:29.493Z,1.80
2018-05-07T09:00:00.364Z,1.77
2018-05-07T09:02:31.015Z,1.90
2018-05-07T09:05:01.692Z,1.45
2018-05-07T09:07:32.532Z,1.85
2018-05-07T09:10:03.456Z,1.73
2018-05-07T09:12:34.399Z,1.70
2018-05-07T09:15:05.343Z,1.42
2018-05-07T09:17:36.768Z,1.50
2018-05-07T09:20:07.537Z,1.45
2018-05-07T09:22:38.465Z,1.40
2018-05-07T09:25:09.391Z,1.60
2018-05-07T09:27:40.358Z,1.60
2018-05-07T09:30:11.332Z,1.60
2018-05-07T09:32:42.422Z,1.40
2018-05-07T09:35:13.376Z,1.52
2018-05-07T09:37:44.427Z,1.30
2018-05-07T09:40:15.281Z,1.37
2018-05-07T09:42:46.438Z,1.83
2018-05-07T09:45:17.447Z,1.50
2018-05-07T09:47:47.950Z,1.44
2018-05-07T09:50:18.675Z,1.62
2018-05-07T09:52:49.433Z,1.80
2018-05-07T09:55:20.337Z,1.45
2018-05-07T09:58:01.771Z,1.62
2018-05-07T10:00:36.173Z,1.40
2018-05-07T10:03:05.662Z,1.50
2018-05-07T10:05:34.840Z,1.30
2018-05-07T10:08:03.811Z,1.20
2018-05-07T10:10:32.865Z,1.30
2018-05-07T10:13:01.819Z,1.60
2018-05-07T10:15:30.776Z,1.83
2018-05-07T10:18:00.135Z,1.90
2018-05-07T10:20:29.114Z,1.50
2018-05-07T10:22:58.835Z,1.90
2018-05-07T10:25:29.504Z,1.40
2018-05-07T10:27:59.877Z,1.50
2018-05-07T10:30:30.588Z,1.58
2018-05-07T10:33:01.473Z,1.48
2018-05-07T10:35:32.433Z,1.85
2018-05-07T10:38:03.361Z,1.40
2018-05-07T10:40:34.330Z,1.40
2018-05-07T10:43:05.397Z,1.45
2018-05-07T10:45:36.331Z,1.83
2018-05-07T10:48:06.913Z,1.24
2018-05-07T10:50:37.667Z,1.60
2018-05-07T10:53:08.466Z,1.58
2018-05-07T10:55:39.547Z,1.00
2018-05-07T10:58:10.722Z,1.30
2018-05-07T11:00:41.438Z,1.42
2018-05-07T11:03:12.384Z,1.20
2018-05-07T11:05:43.375Z,1.30
2018-05-07T11:08:14.279Z,1.25
2018-05-07T11:10:44.937Z,1.17
2018-05-07T11:13:15.624Z,1.20
2018-05-07T11:15:45.712Z,1.65
2018-05-07T11:18:16.436Z,1.15
2018-05-07T11:20:47.765Z,1.12
2018-05-07T11:23:18.452Z,1.10
2018-05-07T11:25:49.443Z,1.33
2018-05-07T11:28:20.351Z,1.37
2018-05-07T11:30:51.344Z,1.27
2018-05-07T11:33:21.888Z,1.30
2018-05-07T11:35:52.644Z,1.70
2018-05-07T11:38:23.343Z,1.00
2018-05-07T11:40:54.399Z,1.20
2018-05-07T11:43:24.927Z,1.20
2018-05-07T11:45:55.618Z,0.98
2018-05-07T11:48:26.334Z,1.40
2018-05-07T11:50:57.445Z,1.10
2018-05-07T11:53:28.300Z,1.52
2018-05-07T11:55:59.670Z,1.25
2018-05-07T11:58:30.388Z,1.25
2018-05-07T12:01:01.452Z,1.50
2018-05-07T12:03:32.319Z,1.23
2018-05-07T12:06:03.429Z,1.27
2018-05-07T12:08:34.288Z,1.35
2018-05-07T12:11:05.418Z,1.33
2018-05-07T12:13:36.380Z,1.40
2018-05-07T12:16:07.411Z,1.05
2018-05-07T12:18:38.357Z,1.20
2018-05-07T12:21:09.194Z,1.40
2018-05-07T12:23:39.975Z,1.40
2018-05-07T12:26:10.686Z,1.60
2018-05-07T12:28:41.401Z,1.40
2018-05-07T12:31:13.041Z,1.30
2018-05-07T12:33:43.815Z,1.37
2018-05-07T12:36:14.476Z,1.40
2018-05-07T12:38:45.267Z,1.30
2018-05-07T12:41:16.639Z,1.37
2018-05-07T12:43:47.228Z,1.50
2018-05-07T12:46:18.509Z,1.58
2018-05-07T12:48:49.289Z,1.33
2018-05-07T12:51:20.352Z,1.33
2018-05-07T12:53:51.358Z,1.45
2018-05-07T12:56:22.541Z,1.42
2018-05-07T12:58:53.313Z,1.60
2018-05-07T13:01:24.557Z,1.30
2018-05-07T13:03:55.291Z,1.20
2018-05-07T13:06:26.441Z,1.10
2018-05-07T13:08:57.306Z,1.40
2018-05-07T13:11:28.509Z,1.35
2018-05-07T13:13:59.381Z,1.30
2018-05-07T13:16:30.390Z,1.20
2018-05-07T13:19:00.924Z,1.32
2018-05-07T13:21:31.661Z,1.40
2018-05-07T13:24:02.344Z,1.77
2018-05-07T13:26:33.437Z,1.20
2018-05-07T13:29:04.367Z,1.10
2018-05-07T13:31:35.114Z,1.02
2018-05-07T13:34:05.779Z,1.48
2018-05-07T13:36:36.540Z,1.25
2018-05-07T13:39:07.163Z,1.00
2018-05-07T13:41:38.738Z,1.00
2018-05-07T13:44:09.429Z,1.15
2018-05-07T13:46:40.574Z,1.83
2018-05-07T13:49:11.335Z,1.08
2018-05-07T13:51:42.424Z,1.17
2018-05-07T13:54:13.031Z,1.00
2018-05-07T13:56:44.782Z,0.96
2018-05-07T13:59:15.495Z,1.30
2018-05-07T14:01:46.633Z,1.30
2018-05-07T14:04:17.287Z,1.17
2018-05-07T14:06:48.761Z,0.93
2018-05-07T14:09:19.444Z,1.27
2018-05-07T14:11:50.383Z,1.35
2018-05-07T14:14:20.962Z,1.30
2018-05-07T14:16:51.553Z,1.20
2018-05-07T14:19:22.342Z,1.10
2018-05-07T14:21:53.350Z,1.20
2018-05-07T14:24:24.397Z,1.33
2018-05-07T14:26:55.412Z,1.40
2018-05-07T14:29:26.279Z,1.40
2018-05-07T14:31:58.999Z,1.30
2018-05-07T14:34:28.808Z,1.20
2018-05-07T14:36:59.505Z,1.30
2018-05-07T14:39:30.010Z,1.22
2018-05-07T14:42:00.699Z,1.06
2018-05-07T14:44:30.634Z,1.30
2018-05-07T14:47:01.435Z,1.10
2018-05-07T14:49:32.284Z,1.27
2018-05-07T14:52:03.431Z,1.20
2018-05-07T14:54:34.292Z,1.25
2018-05-07T14:57:04.960Z,0.90
2018-05-07T14:59:36.768Z,1.32
2018-05-07T15:02:07.075Z,1.10
2018-05-07T15:04:37.855Z,1.25
2018-05-07T15:07:08.570Z,1.30
2018-05-07T15:09:39.287Z,1.25
2018-05-07T15:12:10.474Z,1.45
2018-05-07T15:14:41.342Z,1.62
2018-05-07T15:17:12.500Z,1.25
2018-05-07T15:19:43.535Z,1.30
2018-05-07T15:22:14.422Z,2.35
2018-05-07T15:24:49.068Z,1.60
2018-05-07T15:27:18.100Z,1.57
2018-05-07T15:29:47.367Z,1.50
2018-05-07T15:32:18.075Z,1.10
2018-05-07T15:34:48.720Z,1.08
2018-05-07T15:37:18.724Z,1.10
2018-05-07T15:39:49.386Z,1.50
2018-05-07T15:42:20.394Z,1.00
2018-05-07T15:44:51.369Z,1.15
2018-05-07T15:47:22.385Z,1.17
2018-05-07T15:49:53.382Z,1.50
2018-05-07T15:52:24.088Z,1.78
2018-05-07T15:54:55.048Z,1.12
2018-05-07T15:57:25.869Z,1.30
2018-05-07T15:59:56.530Z,1.10
2018-05-07T16:02:27.525Z,1.60
2018-05-07T16:04:57.978Z,1.20
2018-05-07T16:07:28.793Z,1.20
2018-05-07T16:09:59.462Z,1.20
2018-05-07T16:12:30.391Z,1.10
2018-05-07T16:15:01.518Z,1.08
2018-05-07T16:17:31.696Z,1.48
2018-05-07T16:20:02.436Z,2.85
2018-05-07T16:22:34.092Z,4.78
2018-05-07T16:25:03.951Z,2.40
2018-05-07T16:27:35.683Z,1.44
2018-05-07T16:30:05.955Z,1.35
2018-05-07T16:32:41.130Z,1.44
2018-05-07T16:35:10.108Z,1.40
2018-05-07T16:37:40.093Z,1.77
2018-05-07T16:40:10.916Z,2.00
2018-05-07T16:42:41.526Z,1.85
2018-05-07T16:45:12.630Z,1.35
2018-05-07T16:47:43.463Z,1.37
2018-05-07T16:50:13.898Z,1.40
2018-05-07T16:52:44.481Z,1.17
2018-05-07T16:55:15.420Z,1.48
2018-05-07T16:57:46.512Z,1.40
2018-05-07T17:00:17.392Z,1.20
2018-05-07T17:02:48.338Z,1.25
2018-05-07T17:05:19.375Z,1.62
2018-05-07T17:07:50.370Z,1.27
2018-05-07T17:10:21.359Z,1.42
2018-05-07T17:12:52.482Z,1.30
2018-05-07T17:15:23.317Z,1.20
2018-05-07T17:17:54.467Z,1.45
2018-05-07T17:20:25.352Z,1.40
2018-05-07T17:22:56.422Z,1.37
2018-05-07T17:25:27.368Z,1.17
2018-05-07T17:27:58.369Z,1.67
2018-05-07T17:30:29.374Z,3.58
2018-05-07T17:33:00.422Z,6.50
2018-05-07T17:35:31.562Z,5.40
2018-05-07T17:38:02.332Z,4.07
2018-05-07T17:40:32.953Z,1.90
2018-05-07T17:43:03.632Z,2.00
2018-05-07T17:45:45.346Z,2.17
2018-05-07T17:48:25.260Z,2.03
2018-05-07T17:50:54.264Z,1.40
2018-05-07T17:53:23.811Z,1.65
2018-05-07T17:55:52.791Z,1.47
2018-05-07T17:58:22.026Z,1.80
2018-05-07T18:00:52.271Z,1.40
2018-05-07T18:03:22.206Z,1.47
2018-05-07T18:05:51.942Z,1.67
2018-05-07T18:08:21.387Z,2.17
2018-05-07T18:10:50.586Z,1.73
2018-05-07T18:13:19.846Z,1.80
2018-05-07T18:15:48.815Z,2.00
2018-05-07T18:18:17.927Z,2.28
2018-05-07T18:20:48.026Z,1.90
2018-05-07T18:23:18.815Z,2.03
2018-05-07T18:25:49.268Z,1.90
2018-05-07T18:28:20.264Z,1.62
2018-05-07T18:30:51.451Z,2.03
2018-05-07T18:33:22.318Z,1.85
2018-05-07T18:35:53.445Z,2.00
2018-05-07T18:38:24.283Z,2.00
2018-05-07T18:40:56.124Z,2.16
2018-05-07T18:43:26.821Z,2.10
2018-05-07T18:45:57.642Z,2.15
2018-05-07T18:48:28.359Z,2.00
2018-05-07T18:50:59.648Z,2.33
2018-05-07T18:53:30.412Z,2.30
2018-05-07T18:56:01.811Z,2.35
2018-05-07T18:58:32.735Z,2.03
2018-05-07T19:01:03.592Z,2.62
2018-05-07T19:03:34.443Z,2.35
2018-05-07T19:06:05.455Z,2.35
2018-05-07T19:08:34.970Z,2.03
2018-05-07T19:11:06.169Z,1.80
2018-05-07T19:13:37.050Z,2.00
2018-05-07T19:16:08.349Z,2.67
2018-05-07T19:18:39.500Z,2.30
2018-05-07T19:21:10.457Z,2.00
2018-05-07T19:23:41.516Z,2.00
2018-05-07T19:26:12.374Z,2.17
2018-05-07T19:28:43.800Z,2.20
2018-05-07T19:31:14.436Z,40.72
2018-05-07T19:33:45.128Z,11.70
2018-05-07T19:36:15.762Z,4.42
2018-05-07T19:38:46.609Z,3.62
2018-05-07T19:41:16.742Z,4.30
2018-05-07T19:43:47.816Z,4.28
2018-05-07T19:46:18.582Z,3.67
2018-05-07T19:48:49.880Z,3.15
2018-05-07T19:51:20.586Z,3.03
2018-05-07T19:53:51.514Z,3.05
2018-05-07T19:56:22.388Z,2.95
2018-05-07T19:58:53.428Z,3.10
2018-05-07T20:01:24.436Z,3.05
2018-05-07T20:03:55.447Z,2.60
2018-05-07T20:06:25.936Z,2.76
2018-05-07T20:08:56.697Z,2.95
2018-05-07T20:11:27.371Z,2.60
2018-05-07T20:13:58.443Z,2.37
2018-05-07T20:16:29.351Z,2.90
2018-05-07T20:19:00.471Z,2.80
2018-05-07T20:21:31.394Z,2.28
2018-05-07T20:24:01.969Z,2.50
2018-05-07T20:26:32.625Z,2.25
2018-05-07T20:29:03.523Z,2.60
2018-05-07T20:31:34.654Z,2.40
2018-05-07T20:34:04.767Z,2.50
2018-05-07T20:36:35.495Z,2.90
2018-05-07T20:39:07.028Z,2.97
2018-05-07T20:41:38.330Z,2.78
2018-05-07T20:44:08.965Z,2.84
2018-05-07T20:46:39.798Z,2.97
2018-05-07T20:49:10.531Z,3.20
2018-05-07T20:51:41.434Z,3.10
2018-05-07T20:54:12.012Z,3.32
2018-05-07T20:56:42.806Z,2.87
2018-05-07T20:59:13.493Z,3.37
2018-05-07T21:01:44.382Z,3.28
2018-05-07T21:04:15.364Z,3.10
2018-05-07T21:06:46.632Z,3.03
2018-05-07T21:09:17.382Z,2.97
2018-05-07T21:11:48.446Z,3.47
2018-05-07T21:14:19.137Z,3.46
2018-05-07T21:16:49.735Z,3.40
2018-05-07T21:19:20.526Z,3.20
2018-05-07T21:21:51.526Z,3.58
2018-05-07T21:24:22.406Z,2.97
2018-05-07T21:26:53.390Z,3.75
2018-05-07T21:29:24.498Z,3.12
2018-05-07T21:31:56.424Z,3.10
2018-05-07T21:34:26.953Z,3.60
2018-05-07T21:36:57.682Z,3.12
2018-05-07T21:39:28.418Z,3.70
2018-05-07T21:41:59.481Z,3.50
2018-05-07T21:44:30.338Z,3.70
2018-05-07T21:47:01.372Z,3.70
2018-05-07T21:49:32.410Z,3.90
2018-05-07T21:52:03.448Z,4.25
2018-05-07T21:54:34.430Z,4.20
2018-05-07T21:57:05.486Z,4.50
2018-05-07T21:59:36.394Z,4.70
2018-05-07T22:02:07.081Z,4.76
2018-05-07T22:04:37.762Z,3.90
2018-05-07T22:07:08.394Z,5.15
2018-05-07T22:09:39.361Z,4.47
2018-05-07T22:12:10.452Z,4.25
2018-05-07T22:14:41.447Z,4.32
2018-05-07T22:17:12.421Z,4.20
2018-05-07T22:19:43.434Z,3.75
2018-05-07T22:22:14.472Z,4.68
2018-05-07T22:24:45.097Z,4.12
2018-05-07T22:27:16.698Z,4.12
2018-05-07T22:29:47.450Z,4.43
2018-05-07T22:32:18.397Z,4.20
2018-05-07T22:34:49.359Z,3.60
2018-05-07T22:37:20.463Z,3.65
2018-05-07T22:39:51.350Z,3.75
2018-05-07T22:42:22.502Z,4.43
2018-05-07T22:44:53.351Z,3.70
2018-05-07T22:47:24.408Z,4.30
2018-05-07T22:49:55.334Z,4.20
2018-05-07T22:52:26.445Z,4.00
2018-05-07T22:55:05.317Z,4.10
2018-05-07T22:57:34.435Z,3.70
2018-05-07T23:00:03.398Z,4.03
2018-05-07T23:02:32.501Z,3.83
2018-05-07T23:05:01.754Z,4.00
2018-05-07T23:07:31.706Z,3.72
2018-05-07T23:10:02.521Z,4.00
2018-05-07T23:12:33.191Z,4.36
2018-05-07T23:15:03.703Z,3.70
2018-05-07T23:17:34.395Z,3.70
2018-05-07T23:20:05.112Z,4.10
2018-05-07T23:22:36.634Z,4.58
2018-05-07T23:25:07.429Z,3.67
2018-05-07T23:27:38.326Z,4.10
2018-05-07T23:30:09.367Z,4.00
2018-05-07T23:32:43.335Z,4.32
2018-05-07T23:35:12.386Z,4.90
2018-05-07T23:37:42.990Z,5.16
2018-05-07T23:40:13.754Z,5.10
2018-05-07T23:42:44.433Z,6.18
2018-05-07T23:45:15.084Z,5.72
2018-05-07T23:47:46.664Z,6.08
2018-05-07T23:50:17.456Z,5.65
2018-05-07T23:52:48.722Z,5.60
2018-05-07T23:55:18.754Z,5.43
2018-05-07T23:57:49.465Z,5.30
